sensor_id;sensor_type;location;lat;lon;timestamp;temperature;humidity
48604;DHT22;32708;51.212;6.788;2022-07-24T00:01:04;20.20;1.00
48604;DHT22;32708;51.212;6.788;2022-07-24T00:03:31;20.20;1.00
48604;DHT22;32708;51.212;6.788;2022-07-24T00:05:57;20.20;1.00
48604;DHT22;32708;51.212;6.788;2022-07-24T00:08:23;20.10;1.00
48604;DHT22;32708;51.212;6.788;2022-07-24T00:10:49;20.10;1.00
48604;DHT22;32708;51.212;6.788;2022-07-24T00:13:16;20.00;1.00
48604;DHT22;32708;51.212;6.788;2022-07-24T00:15:42;20.00;1.00
48604;DHT22;32708;51.212;6.788;2022-07-24T00:18:08;19.90;1.00
48604;DHT22;32708;51.212;6.788;2022-07-24T00:20:35;19.80;1.00
48604;DHT22;32708;51.212;6.788;2022-07-24T00:23:01;19.80;1.00
48604;DHT22;32708;51.212;6.788;2022-07-24T00:25:27;19.80;5.40
48604;DHT22;32708;51.212;6.788;2022-07-24T00:27:53;19.70;16.20
48604;DHT22;32708;51.212;6.788;2022-07-24T00:30:20;19.70;15.50
48604;DHT22;32708;51.212;6.788;2022-07-24T00:32:46;19.70;11.40
48604;DHT22;32708;51.212;6.788;2022-07-24T00:35:12;19.60;17.10
48604;DHT22;32708;51.212;6.788;2022-07-24T00:37:39;19.60;19.30
48604;DHT22;32708;51.212;6.788;2022-07-24T00:40:06;19.60;20.90
48604;DHT22;32708;51.212;6.788;2022-07-24T00:42:32;19.60;22.10
48604;DHT22;32708;51.212;6.788;2022-07-24T00:44:59;19.50;25.50
48604;DHT22;32708;51.212;6.788;2022-07-24T00:47:25;19.50;23.70
48604;DHT22;32708;51.212;6.788;2022-07-24T00:49:51;19.40;30.90
48604;DHT22;32708;51.212;6.788;2022-07-24T00:52:17;19.40;20.60
48604;DHT22;32708;51.212;6.788;2022-07-24T00:54:44;19.40;21.70
48604;DHT22;32708;51.212;6.788;2022-07-24T00:57:11;19.30;21.10
48604;DHT22;32708;51.212;6.788;2022-07-24T00:59:37;19.30;23.40
48604;DHT22;32708;51.212;6.788;2022-07-24T01:02:03;19.30;23.70
48604;DHT22;32708;51.212;6.788;2022-07-24T01:04:30;19.20;29.00
48604;DHT22;32708;51.212;6.788;2022-07-24T01:06:56;19.20;24.60
48604;DHT22;32708;51.212;6.788;2022-07-24T01:09:23;19.20;27.80
48604;DHT22;32708;51.212;6.788;2022-07-24T01:11:50;19.20;18.70
48604;DHT22;32708;51.212;6.788;2022-07-24T01:14:18;19.20;14.00
48604;DHT22;32708;51.212;6.788;2022-07-24T01:16:45;19.30;7.90
48604;DHT22;32708;51.212;6.788;2022-07-24T01:19:11;19.30;1.80
48604;DHT22;32708;51.212;6.788;2022-07-24T01:21:37;19.30;1.10
48604;DHT22;32708;51.212;6.788;2022-07-24T01:24:04;19.40;1.00
48604;DHT22;32708;51.212;6.788;2022-07-24T01:26:30;19.30;1.00
48604;DHT22;32708;51.212;6.788;2022-07-24T01:28:57;19.30;1.00
48604;DHT22;32708;51.212;6.788;2022-07-24T01:31:23;19.30;1.00
48604;DHT22;32708;51.212;6.788;2022-07-24T01:33:49;19.40;1.00
48604;DHT22;32708;51.212;6.788;2022-07-24T01:36:15;19.30;1.00
48604;DHT22;32708;51.212;6.788;2022-07-24T01:38:41;19.40;1.00
48604;DHT22;32708;51.212;6.788;2022-07-24T01:41:08;19.40;1.00
48604;DHT22;32708;51.212;6.788;2022-07-24T01:43:34;19.40;1.00
48604;DHT22;32708;51.212;6.788;2022-07-24T01:46:00;19.40;1.00
48604;DHT22;32708;51.212;6.788;2022-07-24T01:48:26;19.30;1.00
48604;DHT22;32708;51.212;6.788;2022-07-24T01:50:53;19.30;1.00
48604;DHT22;32708;51.212;6.788;2022-07-24T01:53:19;19.40;1.00
48604;DHT22;32708;51.212;6.788;2022-07-24T01:55:45;19.30;1.00
48604;DHT22;32708;51.212;6.788;2022-07-24T01:58:14;19.30;1.00
48604;DHT22;32708;51.212;6.788;2022-07-24T02:00:40;19.40;1.00
48604;DHT22;32708;51.212;6.788;2022-07-24T02:03:07;19.40;1.00
48604;DHT22;32708;51.212;6.788;2022-07-24T02:05:33;19.40;1.00
48604;DHT22;32708;51.212;6.788;2022-07-24T02:07:59;19.40;1.00
48604;DHT22;32708;51.212;6.788;2022-07-24T02:10:28;19.30;1.00
48604;DHT22;32708;51.212;6.788;2022-07-24T02:12:56;19.30;1.00
48604;DHT22;32708;51.212;6.788;2022-07-24T02:15:22;19.30;1.00
48604;DHT22;32708;51.212;6.788;2022-07-24T02:17:56;19.20;1.00
48604;DHT22;32708;51.212;6.788;2022-07-24T02:20:25;19.20;1.00
48604;DHT22;32708;51.212;6.788;2022-07-24T02:22:52;19.10;4.50
48604;DHT22;32708;51.212;6.788;2022-07-24T02:25:19;19.10;1.90
48604;DHT22;32708;51.212;6.788;2022-07-24T02:27:46;19.00;10.70
48604;DHT22;32708;51.212;6.788;2022-07-24T02:30:16;18.90;17.00
48604;DHT22;32708;51.212;6.788;2022-07-24T02:32:46;18.90;19.50
48604;DHT22;32708;51.212;6.788;2022-07-24T02:35:13;18.90;22.20
48604;DHT22;32708;51.212;6.788;2022-07-24T02:37:42;18.90;25.80
48604;DHT22;32708;51.212;6.788;2022-07-24T02:40:11;18.80;27.90
48604;DHT22;32708;51.212;6.788;2022-07-24T02:42:39;18.80;32.80
48604;DHT22;32708;51.212;6.788;2022-07-24T02:45:06;18.70;36.70
48604;DHT22;32708;51.212;6.788;2022-07-24T02:47:33;18.70;35.70
48604;DHT22;32708;51.212;6.788;2022-07-24T02:50:00;18.70;36.70
48604;DHT22;32708;51.212;6.788;2022-07-24T02:52:26;18.60;37.20
48604;DHT22;32708;51.212;6.788;2022-07-24T02:54:52;18.50;37.80
48604;DHT22;32708;51.212;6.788;2022-07-24T02:57:18;18.50;40.20
48604;DHT22;32708;51.212;6.788;2022-07-24T02:59:44;18.50;39.40
48604;DHT22;32708;51.212;6.788;2022-07-24T03:02:15;18.50;42.40
48604;DHT22;32708;51.212;6.788;2022-07-24T03:04:42;18.40;43.90
48604;DHT22;32708;51.212;6.788;2022-07-24T03:07:11;18.50;43.30
48604;DHT22;32708;51.212;6.788;2022-07-24T03:09:37;18.50;41.90
48604;DHT22;32708;51.212;6.788;2022-07-24T03:12:04;18.50;41.20
48604;DHT22;32708;51.212;6.788;2022-07-24T03:14:30;18.50;38.10
48604;DHT22;32708;51.212;6.788;2022-07-24T03:16:56;18.50;38.20
48604;DHT22;32708;51.212;6.788;2022-07-24T03:19:22;18.50;38.40
48604;DHT22;32708;51.212;6.788;2022-07-24T03:21:48;18.40;40.40
48604;DHT22;32708;51.212;6.788;2022-07-24T03:24:15;18.40;40.90
48604;DHT22;32708;51.212;6.788;2022-07-24T03:26:42;18.40;40.40
48604;DHT22;32708;51.212;6.788;2022-07-24T03:29:08;18.50;39.40
48604;DHT22;32708;51.212;6.788;2022-07-24T03:31:34;18.50;36.50
48604;DHT22;32708;51.212;6.788;2022-07-24T03:34:00;18.40;37.80
48604;DHT22;32708;51.212;6.788;2022-07-24T03:36:27;18.40;39.10
48604;DHT22;32708;51.212;6.788;2022-07-24T03:38:53;18.40;41.30
48604;DHT22;32708;51.212;6.788;2022-07-24T03:41:19;18.40;42.60
48604;DHT22;32708;51.212;6.788;2022-07-24T03:43:46;18.50;43.20
48604;DHT22;32708;51.212;6.788;2022-07-24T03:46:12;18.50;41.30
48604;DHT22;32708;51.212;6.788;2022-07-24T03:48:38;18.50;39.20
48604;DHT22;32708;51.212;6.788;2022-07-24T03:51:04;18.50;38.00
48604;DHT22;32708;51.212;6.788;2022-07-24T03:53:31;18.50;39.40
48604;DHT22;32708;51.212;6.788;2022-07-24T03:55:57;18.50;35.50
48604;DHT22;32708;51.212;6.788;2022-07-24T03:58:23;18.50;34.90
48604;DHT22;32708;51.212;6.788;2022-07-24T04:00:49;18.40;40.00
48604;DHT22;32708;51.212;6.788;2022-07-24T04:03:15;18.50;41.00
48604;DHT22;32708;51.212;6.788;2022-07-24T04:05:41;18.50;38.90
48604;DHT22;32708;51.212;6.788;2022-07-24T04:08:07;18.50;34.80
48604;DHT22;32708;51.212;6.788;2022-07-24T04:10:33;18.50;37.40
48604;DHT22;32708;51.212;6.788;2022-07-24T04:13:00;18.50;33.10
48604;DHT22;32708;51.212;6.788;2022-07-24T04:15:26;18.70;28.80
48604;DHT22;32708;51.212;6.788;2022-07-24T04:17:52;18.60;29.00
48604;DHT22;32708;51.212;6.788;2022-07-24T04:20:18;18.70;26.50
48604;DHT22;32708;51.212;6.788;2022-07-24T04:22:44;18.80;24.00
48604;DHT22;32708;51.212;6.788;2022-07-24T04:25:10;18.90;18.10
48604;DHT22;32708;51.212;6.788;2022-07-24T04:27:37;18.90;14.20
48604;DHT22;32708;51.212;6.788;2022-07-24T04:30:04;18.90;9.50
48604;DHT22;32708;51.212;6.788;2022-07-24T04:32:31;19.00;4.30
48604;DHT22;32708;51.212;6.788;2022-07-24T04:34:57;19.00;9.00
48604;DHT22;32708;51.212;6.788;2022-07-24T04:37:23;19.00;7.50
48604;DHT22;32708;51.212;6.788;2022-07-24T04:39:50;18.90;8.00
48604;DHT22;32708;51.212;6.788;2022-07-24T04:42:16;19.10;3.20
48604;DHT22;32708;51.212;6.788;2022-07-24T04:44:42;19.20;1.00
48604;DHT22;32708;51.212;6.788;2022-07-24T04:47:08;19.30;1.00
48604;DHT22;32708;51.212;6.788;2022-07-24T04:49:34;19.50;1.00
48604;DHT22;32708;51.212;6.788;2022-07-24T04:52:00;19.60;1.00
48604;DHT22;32708;51.212;6.788;2022-07-24T04:54:27;19.80;1.00
48604;DHT22;32708;51.212;6.788;2022-07-24T04:56:53;19.80;1.00
48604;DHT22;32708;51.212;6.788;2022-07-24T04:59:19;19.90;1.00
48604;DHT22;32708;51.212;6.788;2022-07-24T05:01:45;19.80;1.00
48604;DHT22;32708;51.212;6.788;2022-07-24T05:04:11;20.00;1.00
48604;DHT22;32708;51.212;6.788;2022-07-24T05:06:38;20.20;99.90
48604;DHT22;32708;51.212;6.788;2022-07-24T05:09:04;20.20;99.90
48604;DHT22;32708;51.212;6.788;2022-07-24T05:11:30;20.30;99.90
48604;DHT22;32708;51.212;6.788;2022-07-24T05:13:56;20.50;99.90
48604;DHT22;32708;51.212;6.788;2022-07-24T05:16:23;20.60;99.90
48604;DHT22;32708;51.212;6.788;2022-07-24T05:18:49;20.60;71.80
48604;DHT22;32708;51.212;6.788;2022-07-24T05:21:15;20.90;99.90
48604;DHT22;32708;51.212;6.788;2022-07-24T05:23:41;21.20;11.50
48604;DHT22;32708;51.212;6.788;2022-07-24T05:26:09;21.50;99.90
48604;DHT22;32708;51.212;6.788;2022-07-24T05:28:35;21.60;99.90
48604;DHT22;32708;51.212;6.788;2022-07-24T05:31:01;21.50;99.90
48604;DHT22;32708;51.212;6.788;2022-07-24T05:33:27;21.60;99.90
48604;DHT22;32708;51.212;6.788;2022-07-24T05:35:54;21.90;99.90
48604;DHT22;32708;51.212;6.788;2022-07-24T05:38:20;22.10;99.90
48604;DHT22;32708;51.212;6.788;2022-07-24T05:40:46;22.00;98.20
48604;DHT22;32708;51.212;6.788;2022-07-24T05:43:12;21.90;99.90
48604;DHT22;32708;51.212;6.788;2022-07-24T05:45:38;21.80;99.90
48604;DHT22;32708;51.212;6.788;2022-07-24T05:48:05;22.00;1.00
48604;DHT22;32708;51.212;6.788;2022-07-24T05:50:31;22.10;99.90
48604;DHT22;32708;51.212;6.788;2022-07-24T05:52:57;22.10;57.90
48604;DHT22;32708;51.212;6.788;2022-07-24T05:55:23;22.30;99.90
48604;DHT22;32708;51.212;6.788;2022-07-24T05:57:50;22.30;1.00
48604;DHT22;32708;51.212;6.788;2022-07-24T06:00:16;22.40;99.90
48604;DHT22;32708;51.212;6.788;2022-07-24T06:02:45;22.50;1.00
48604;DHT22;32708;51.212;6.788;2022-07-24T06:05:15;22.90;99.90
48604;DHT22;32708;51.212;6.788;2022-07-24T06:07:43;22.80;99.90
48604;DHT22;32708;51.212;6.788;2022-07-24T06:10:10;23.10;99.90
48604;DHT22;32708;51.212;6.788;2022-07-24T06:12:37;23.10;99.90
48604;DHT22;32708;51.212;6.788;2022-07-24T06:15:04;23.20;99.90
48604;DHT22;32708;51.212;6.788;2022-07-24T06:17:30;23.20;99.90
48604;DHT22;32708;51.212;6.788;2022-07-24T06:19:56;23.20;99.90
48604;DHT22;32708;51.212;6.788;2022-07-24T06:22:23;23.60;93.70
48604;DHT22;32708;51.212;6.788;2022-07-24T06:24:49;24.10;1.00
48604;DHT22;32708;51.212;6.788;2022-07-24T06:27:15;24.10;99.90
48604;DHT22;32708;51.212;6.788;2022-07-24T06:29:41;24.40;99.90
48604;DHT22;32708;51.212;6.788;2022-07-24T06:32:08;24.60;99.90
48604;DHT22;32708;51.212;6.788;2022-07-24T06:34:34;24.30;99.90
48604;DHT22;32708;51.212;6.788;2022-07-24T06:37:00;24.30;99.90
48604;DHT22;32708;51.212;6.788;2022-07-24T06:39:26;24.80;99.90
48604;DHT22;32708;51.212;6.788;2022-07-24T06:41:52;24.80;99.90
48604;DHT22;32708;51.212;6.788;2022-07-24T06:44:28;25.00;99.90
48604;DHT22;32708;51.212;6.788;2022-07-24T06:46:54;25.00;99.90
48604;DHT22;32708;51.212;6.788;2022-07-24T06:49:20;24.80;99.90
48604;DHT22;32708;51.212;6.788;2022-07-24T06:51:46;25.10;99.50
48604;DHT22;32708;51.212;6.788;2022-07-24T06:54:13;25.50;34.90
48604;DHT22;32708;51.212;6.788;2022-07-24T06:56:39;25.90;1.00
48604;DHT22;32708;51.212;6.788;2022-07-24T06:59:06;26.00;1.00
48604;DHT22;32708;51.212;6.788;2022-07-24T07:01:32;26.00;1.00
48604;DHT22;32708;51.212;6.788;2022-07-24T07:03:58;26.00;1.00
48604;DHT22;32708;51.212;6.788;2022-07-24T07:06:24;26.10;1.00
48604;DHT22;32708;51.212;6.788;2022-07-24T07:08:50;26.20;1.00
48604;DHT22;32708;51.212;6.788;2022-07-24T07:11:16;26.40;99.90
48604;DHT22;32708;51.212;6.788;2022-07-24T07:13:43;26.70;99.90
48604;DHT22;32708;51.212;6.788;2022-07-24T07:16:09;26.60;99.90
48604;DHT22;32708;51.212;6.788;2022-07-24T07:18:35;26.80;99.90
48604;DHT22;32708;51.212;6.788;2022-07-24T07:21:03;27.10;99.90
48604;DHT22;32708;51.212;6.788;2022-07-24T07:23:29;27.20;99.90
48604;DHT22;32708;51.212;6.788;2022-07-24T07:25:55;27.20;99.90
48604;DHT22;32708;51.212;6.788;2022-07-24T07:28:22;26.90;99.90
48604;DHT22;32708;51.212;6.788;2022-07-24T07:30:48;26.60;99.90
48604;DHT22;32708;51.212;6.788;2022-07-24T07:33:14;26.90;99.90
48604;DHT22;32708;51.212;6.788;2022-07-24T07:35:40;27.60;99.90
48604;DHT22;32708;51.212;6.788;2022-07-24T07:38:06;27.90;99.90
48604;DHT22;32708;51.212;6.788;2022-07-24T07:40:32;28.50;99.90
48604;DHT22;32708;51.212;6.788;2022-07-24T07:42:59;28.30;99.90
48604;DHT22;32708;51.212;6.788;2022-07-24T07:45:25;28.10;99.90
48604;DHT22;32708;51.212;6.788;2022-07-24T07:47:51;27.90;99.90
48604;DHT22;32708;51.212;6.788;2022-07-24T07:50:18;27.60;99.90
48604;DHT22;32708;51.212;6.788;2022-07-24T07:52:44;27.60;99.90
48604;DHT22;32708;51.212;6.788;2022-07-24T07:55:10;27.80;99.90
48604;DHT22;32708;51.212;6.788;2022-07-24T07:57:36;27.40;99.90
48604;DHT22;32708;51.212;6.788;2022-07-24T08:00:04;27.70;99.90
48604;DHT22;32708;51.212;6.788;2022-07-24T08:02:38;28.60;99.90
48604;DHT22;32708;51.212;6.788;2022-07-24T08:05:06;28.80;99.90
48604;DHT22;32708;51.212;6.788;2022-07-24T08:07:33;28.20;99.90
48604;DHT22;32708;51.212;6.788;2022-07-24T08:09:59;28.50;99.90
48604;DHT22;32708;51.212;6.788;2022-07-24T08:12:26;28.20;99.90
48604;DHT22;32708;51.212;6.788;2022-07-24T08:14:52;28.20;99.90
48604;DHT22;32708;51.212;6.788;2022-07-24T08:17:18;28.00;99.90
48604;DHT22;32708;51.212;6.788;2022-07-24T08:19:44;28.30;99.90
48604;DHT22;32708;51.212;6.788;2022-07-24T08:22:11;28.60;99.90
48604;DHT22;32708;51.212;6.788;2022-07-24T08:24:38;29.50;99.90
48604;DHT22;32708;51.212;6.788;2022-07-24T08:27:05;29.40;99.90
48604;DHT22;32708;51.212;6.788;2022-07-24T08:29:32;29.50;99.90
48604;DHT22;32708;51.212;6.788;2022-07-24T08:31:58;29.00;99.90
48604;DHT22;32708;51.212;6.788;2022-07-24T08:34:24;28.70;99.90
48604;DHT22;32708;51.212;6.788;2022-07-24T08:36:51;28.90;99.90
48604;DHT22;32708;51.212;6.788;2022-07-24T08:39:17;28.60;99.90
48604;DHT22;32708;51.212;6.788;2022-07-24T08:41:43;28.30;99.90
48604;DHT22;32708;51.212;6.788;2022-07-24T08:44:10;28.80;99.90
48604;DHT22;32708;51.212;6.788;2022-07-24T08:46:38;29.00;99.90
48604;DHT22;32708;51.212;6.788;2022-07-24T08:49:12;29.20;99.90
48604;DHT22;32708;51.212;6.788;2022-07-24T08:51:42;29.60;99.90
48604;DHT22;32708;51.212;6.788;2022-07-24T08:54:10;29.60;99.90
48604;DHT22;32708;51.212;6.788;2022-07-24T08:56:41;29.50;99.90
48604;DHT22;32708;51.212;6.788;2022-07-24T08:59:18;29.70;99.90
48604;DHT22;32708;51.212;6.788;2022-07-24T09:01:48;30.20;99.90
48604;DHT22;32708;51.212;6.788;2022-07-24T09:04:36;30.30;99.90
48604;DHT22;32708;51.212;6.788;2022-07-24T09:07:11;30.80;99.90
48604;DHT22;32708;51.212;6.788;2022-07-24T09:09:41;30.60;99.90
48604;DHT22;32708;51.212;6.788;2022-07-24T09:12:14;30.60;99.90
48604;DHT22;32708;51.212;6.788;2022-07-24T09:14:46;30.10;99.90
48604;DHT22;32708;51.212;6.788;2022-07-24T09:17:17;30.20;99.90
48604;DHT22;32708;51.212;6.788;2022-07-24T09:27:36;29.30;99.90
48604;DHT22;32708;51.212;6.788;2022-07-24T09:33:00;30.50;99.90
48604;DHT22;32708;51.212;6.788;2022-07-24T09:35:37;30.40;99.90
48604;DHT22;32708;51.212;6.788;2022-07-24T09:38:08;30.40;99.90
48604;DHT22;32708;51.212;6.788;2022-07-24T09:40:45;30.80;99.90
48604;DHT22;32708;51.212;6.788;2022-07-24T09:48:26;30.70;99.90
48604;DHT22;32708;51.212;6.788;2022-07-24T09:50:57;30.50;99.90
48604;DHT22;32708;51.212;6.788;2022-07-24T09:53:29;30.50;99.90
48604;DHT22;32708;51.212;6.788;2022-07-24T09:58:33;31.00;99.90
48604;DHT22;32708;51.212;6.788;2022-07-24T10:01:02;31.80;99.30
48604;DHT22;32708;51.212;6.788;2022-07-24T10:03:35;31.20;98.90
48604;DHT22;32708;51.212;6.788;2022-07-24T10:06:06;31.00;99.10
48604;DHT22;32708;51.212;6.788;2022-07-24T10:08:37;31.50;98.10
48604;DHT22;32708;51.212;6.788;2022-07-24T10:11:07;31.00;97.70
48604;DHT22;32708;51.212;6.788;2022-07-24T10:13:35;30.90;96.50
48604;DHT22;32708;51.212;6.788;2022-07-24T10:18:48;31.20;95.00
48604;DHT22;32708;51.212;6.788;2022-07-24T10:21:20;31.40;95.00
48604;DHT22;32708;51.212;6.788;2022-07-24T10:29:10;30.90;94.70
48604;DHT22;32708;51.212;6.788;2022-07-24T10:31:44;31.20;94.00
48604;DHT22;32708;51.212;6.788;2022-07-24T10:34:36;31.30;93.60
48604;DHT22;32708;51.212;6.788;2022-07-24T10:37:32;31.20;93.50
48604;DHT22;32708;51.212;6.788;2022-07-24T10:40:20;31.00;91.90
48604;DHT22;32708;51.212;6.788;2022-07-24T10:55:52;31.40;80.90
48604;DHT22;32708;51.212;6.788;2022-07-24T10:58:20;31.70;79.60
48604;DHT22;32708;51.212;6.788;2022-07-24T11:00:49;31.80;78.40
48604;DHT22;32708;51.212;6.788;2022-07-24T11:03:25;31.60;76.10
48604;DHT22;32708;51.212;6.788;2022-07-24T11:06:14;31.20;75.00
48604;DHT22;32708;51.212;6.788;2022-07-24T11:08:51;31.30;74.00
48604;DHT22;32708;51.212;6.788;2022-07-24T11:11:21;31.50;70.10
48604;DHT22;32708;51.212;6.788;2022-07-24T11:13:55;31.40;68.40
48604;DHT22;32708;51.212;6.788;2022-07-24T11:16:32;31.60;66.00
48604;DHT22;32708;51.212;6.788;2022-07-24T11:21:35;32.00;63.70
48604;DHT22;32708;51.212;6.788;2022-07-24T11:26:52;30.70;57.80
48604;DHT22;32708;51.212;6.788;2022-07-24T11:29:28;31.10;56.00
48604;DHT22;32708;51.212;6.788;2022-07-24T11:34:49;31.20;52.20
48604;DHT22;32708;51.212;6.788;2022-07-24T11:37:18;31.30;50.90
48604;DHT22;32708;51.212;6.788;2022-07-24T11:39:46;31.50;49.10
48604;DHT22;32708;51.212;6.788;2022-07-24T11:42:14;31.80;47.80
48604;DHT22;32708;51.212;6.788;2022-07-24T11:44:44;31.60;45.60
48604;DHT22;32708;51.212;6.788;2022-07-24T11:47:21;31.70;45.90
48604;DHT22;32708;51.212;6.788;2022-07-24T11:49:57;31.90;42.60
48604;DHT22;32708;51.212;6.788;2022-07-24T11:52:32;32.40;42.10
48604;DHT22;32708;51.212;6.788;2022-07-24T11:57:39;32.50;36.30
48604;DHT22;32708;51.212;6.788;2022-07-24T12:00:19;32.80;36.50
48604;DHT22;32708;51.212;6.788;2022-07-24T12:02:51;32.90;33.10
48604;DHT22;32708;51.212;6.788;2022-07-24T12:05:31;32.60;30.80
48604;DHT22;32708;51.212;6.788;2022-07-24T12:08:16;32.00;30.10
48604;DHT22;32708;51.212;6.788;2022-07-24T12:10:47;32.30;30.20
48604;DHT22;32708;51.212;6.788;2022-07-24T12:13:15;32.00;28.40
48604;DHT22;32708;51.212;6.788;2022-07-24T12:15:42;32.60;28.40
48604;DHT22;32708;51.212;6.788;2022-07-24T12:18:09;33.00;29.10
48604;DHT22;32708;51.212;6.788;2022-07-24T12:20:38;33.00;25.70
48604;DHT22;32708;51.212;6.788;2022-07-24T12:23:09;33.50;25.10
48604;DHT22;32708;51.212;6.788;2022-07-24T12:25:38;32.90;23.10
48604;DHT22;32708;51.212;6.788;2022-07-24T12:30:43;32.70;23.40
48604;DHT22;32708;51.212;6.788;2022-07-24T12:36:02;32.60;21.30
48604;DHT22;32708;51.212;6.788;2022-07-24T12:38:36;32.60;21.50
48604;DHT22;32708;51.212;6.788;2022-07-24T12:41:18;32.30;20.40
48604;DHT22;32708;51.212;6.788;2022-07-24T12:49:11;33.90;19.10
48604;DHT22;32708;51.212;6.788;2022-07-24T12:51:58;33.40;18.00
48604;DHT22;32708;51.212;6.788;2022-07-24T12:54:36;33.10;16.70
48604;DHT22;32708;51.212;6.788;2022-07-24T12:57:11;33.00;16.30
48604;DHT22;32708;51.212;6.788;2022-07-24T12:59:40;33.50;24.80
48604;DHT22;32708;51.212;6.788;2022-07-24T13:02:16;34.50;16.30
48604;DHT22;32708;51.212;6.788;2022-07-24T13:04:49;34.30;14.80
48604;DHT22;32708;51.212;6.788;2022-07-24T13:07:22;33.70;13.60
48604;DHT22;32708;51.212;6.788;2022-07-24T13:09:51;34.10;14.00
48604;DHT22;32708;51.212;6.788;2022-07-24T13:12:19;34.60;13.90
48604;DHT22;32708;51.212;6.788;2022-07-24T13:14:46;34.30;12.90
48604;DHT22;32708;51.212;6.788;2022-07-24T13:17:17;34.20;11.60
48604;DHT22;32708;51.212;6.788;2022-07-24T13:19:49;33.60;11.40
48604;DHT22;32708;51.212;6.788;2022-07-24T13:22:17;33.40;11.30
48604;DHT22;32708;51.212;6.788;2022-07-24T13:24:45;33.20;12.30
48604;DHT22;32708;51.212;6.788;2022-07-24T13:27:12;33.50;12.20
48604;DHT22;32708;51.212;6.788;2022-07-24T13:29:39;34.70;11.70
48604;DHT22;32708;51.212;6.788;2022-07-24T13:32:06;34.80;12.30
48604;DHT22;32708;51.212;6.788;2022-07-24T13:34:33;33.80;11.00
48604;DHT22;32708;51.212;6.788;2022-07-24T13:36:59;33.60;10.90
48604;DHT22;32708;51.212;6.788;2022-07-24T13:39:26;33.90;10.80
48604;DHT22;32708;51.212;6.788;2022-07-24T13:41:52;33.90;11.30
48604;DHT22;32708;51.212;6.788;2022-07-24T13:44:18;33.70;10.60
48604;DHT22;32708;51.212;6.788;2022-07-24T13:46:44;33.20;10.10
48604;DHT22;32708;51.212;6.788;2022-07-24T13:49:11;33.10;10.30
48604;DHT22;32708;51.212;6.788;2022-07-24T13:51:40;33.40;10.40
48604;DHT22;32708;51.212;6.788;2022-07-24T13:54:06;33.30;10.60
48604;DHT22;32708;51.212;6.788;2022-07-24T13:56:33;33.10;9.90
48604;DHT22;32708;51.212;6.788;2022-07-24T13:58:59;32.80;10.30
48604;DHT22;32708;51.212;6.788;2022-07-24T14:01:26;32.50;9.40
48604;DHT22;32708;51.212;6.788;2022-07-24T14:03:52;31.90;9.50
48604;DHT22;32708;51.212;6.788;2022-07-24T14:06:18;31.70;9.50
48604;DHT22;32708;51.212;6.788;2022-07-24T14:08:45;31.90;9.90
48604;DHT22;32708;51.212;6.788;2022-07-24T14:11:11;31.80;10.70
48604;DHT22;32708;51.212;6.788;2022-07-24T14:13:37;31.40;9.70
48604;DHT22;32708;51.212;6.788;2022-07-24T14:16:03;31.50;10.20
48604;DHT22;32708;51.212;6.788;2022-07-24T14:18:30;31.60;10.70
48604;DHT22;32708;51.212;6.788;2022-07-24T14:20:56;31.80;10.10
48604;DHT22;32708;51.212;6.788;2022-07-24T14:23:22;32.20;10.20
48604;DHT22;32708;51.212;6.788;2022-07-24T14:25:50;32.90;10.50
48604;DHT22;32708;51.212;6.788;2022-07-24T14:28:16;33.00;10.40
48604;DHT22;32708;51.212;6.788;2022-07-24T14:30:42;32.90;10.10
48604;DHT22;32708;51.212;6.788;2022-07-24T14:33:08;33.00;9.80
48604;DHT22;32708;51.212;6.788;2022-07-24T14:35:35;33.10;10.20
48604;DHT22;32708;51.212;6.788;2022-07-24T14:38:01;33.40;10.30
48604;DHT22;32708;51.212;6.788;2022-07-24T14:40:28;33.70;9.50
48604;DHT22;32708;51.212;6.788;2022-07-24T14:42:54;34.00;9.60
48604;DHT22;32708;51.212;6.788;2022-07-24T14:45:21;34.20;8.70
48604;DHT22;32708;51.212;6.788;2022-07-24T14:47:48;34.20;7.80
48604;DHT22;32708;51.212;6.788;2022-07-24T14:50:15;34.50;6.80
48604;DHT22;32708;51.212;6.788;2022-07-24T14:52:41;33.60;6.40
48604;DHT22;32708;51.212;6.788;2022-07-24T14:55:08;33.20;6.30
48604;DHT22;32708;51.212;6.788;2022-07-24T14:57:35;33.20;6.20
48604;DHT22;32708;51.212;6.788;2022-07-24T15:00:02;33.00;6.00
48604;DHT22;32708;51.212;6.788;2022-07-24T15:02:31;32.40;5.80
48604;DHT22;32708;51.212;6.788;2022-07-24T15:04:57;32.70;5.60
48604;DHT22;32708;51.212;6.788;2022-07-24T15:07:24;32.70;4.80
48604;DHT22;32708;51.212;6.788;2022-07-24T15:09:51;32.50;5.90
48604;DHT22;32708;51.212;6.788;2022-07-24T15:12:17;32.10;5.50
48604;DHT22;32708;51.212;6.788;2022-07-24T15:14:44;32.10;5.30
48604;DHT22;32708;51.212;6.788;2022-07-24T15:17:10;32.10;4.80
48604;DHT22;32708;51.212;6.788;2022-07-24T15:19:36;32.20;4.90
48604;DHT22;32708;51.212;6.788;2022-07-24T15:22:02;32.60;5.40
48604;DHT22;32708;51.212;6.788;2022-07-24T15:24:29;32.70;5.10
48604;DHT22;32708;51.212;6.788;2022-07-24T15:26:55;32.20;4.90
48604;DHT22;32708;51.212;6.788;2022-07-24T15:29:21;31.90;4.30
48604;DHT22;32708;51.212;6.788;2022-07-24T15:31:57;32.00;4.20
48604;DHT22;32708;51.212;6.788;2022-07-24T15:34:24;32.00;4.00
48604;DHT22;32708;51.212;6.788;2022-07-24T15:36:58;32.00;3.90
48604;DHT22;32708;51.212;6.788;2022-07-24T15:39:24;31.80;3.70
48604;DHT22;32708;51.212;6.788;2022-07-24T15:41:51;31.70;3.60
48604;DHT22;32708;51.212;6.788;2022-07-24T15:44:17;31.60;4.00
48604;DHT22;32708;51.212;6.788;2022-07-24T15:46:43;31.50;3.90
48604;DHT22;32708;51.212;6.788;2022-07-24T15:49:09;31.20;4.70
48604;DHT22;32708;51.212;6.788;2022-07-24T15:51:35;31.50;4.40
48604;DHT22;32708;51.212;6.788;2022-07-24T15:54:02;31.70;3.60
48604;DHT22;32708;51.212;6.788;2022-07-24T15:56:32;31.70;3.40
48604;DHT22;32708;51.212;6.788;2022-07-24T15:58:59;32.30;3.70
48604;DHT22;32708;51.212;6.788;2022-07-24T16:01:25;32.50;3.70
48604;DHT22;32708;51.212;6.788;2022-07-24T16:03:51;32.00;3.30
48604;DHT22;32708;51.212;6.788;2022-07-24T16:06:17;32.00;2.60
48604;DHT22;32708;51.212;6.788;2022-07-24T16:08:43;31.80;2.90
48604;DHT22;32708;51.212;6.788;2022-07-24T16:11:09;31.90;2.30
48604;DHT22;32708;51.212;6.788;2022-07-24T16:13:36;32.40;3.00
48604;DHT22;32708;51.212;6.788;2022-07-24T16:16:02;32.90;3.40
48604;DHT22;32708;51.212;6.788;2022-07-24T16:18:28;33.20;2.20
48604;DHT22;32708;51.212;6.788;2022-07-24T16:20:56;32.90;1.80
48604;DHT22;32708;51.212;6.788;2022-07-24T16:23:22;33.00;1.60
48604;DHT22;32708;51.212;6.788;2022-07-24T16:25:48;33.00;1.10
48604;DHT22;32708;51.212;6.788;2022-07-24T16:28:14;33.30;1.00
48604;DHT22;32708;51.212;6.788;2022-07-24T16:30:41;33.30;1.00
48604;DHT22;32708;51.212;6.788;2022-07-24T16:33:07;33.30;1.00
48604;DHT22;32708;51.212;6.788;2022-07-24T16:35:33;33.30;1.00
48604;DHT22;32708;51.212;6.788;2022-07-24T16:37:59;33.10;1.00
48604;DHT22;32708;51.212;6.788;2022-07-24T16:40:25;33.00;1.00